createdAt,value
2022-12-18T00:01:32.757Z,-1.68
2022-12-18T00:04:03.699Z,-1.68
2022-12-18T00:06:31.860Z,-1.64
2022-12-18T00:09:00.900Z,-1.60
2022-12-18T00:11:31.678Z,-1.53
2022-12-18T00:14:02.029Z,-1.45
2022-12-18T00:16:36.456Z,-1.42
2022-12-18T00:19:05.994Z,-1.41
2022-12-18T00:21:34.664Z,-1.53
2022-12-18T00:24:02.887Z,-1.49
2022-12-18T00:26:33.523Z,-1.55
2022-12-18T00:29:14.876Z,-1.53
2022-12-18T00:31:44.041Z,-1.51
2022-12-18T00:34:14.127Z,-1.50
2022-12-18T00:36:42.463Z,-1.51
2022-12-18T00:39:11.813Z,-1.46
2022-12-18T00:41:57.601Z,-1.40
2022-12-18T00:44:25.135Z,-1.35
2022-12-18T00:46:52.357Z,-1.39
2022-12-18T00:49:21.190Z,-1.38
2022-12-18T00:51:49.055Z,-1.25
2022-12-18T00:54:17.122Z,-1.20
2022-12-18T00:56:51.447Z,-1.39
2022-12-18T00:59:19.679Z,-1.40
2022-12-18T01:01:48.221Z,-1.52
2022-12-18T01:04:16.248Z,-1.48
2022-12-18T01:06:43.500Z,-1.50
2022-12-18T01:09:13.799Z,-1.65
2022-12-18T01:11:41.493Z,-1.64
2022-12-18T01:14:09.677Z,-1.63
2022-12-18T01:16:36.894Z,-1.54
2022-12-18T01:19:04.429Z,-1.54
2022-12-18T01:21:31.866Z,-1.56
2022-12-18T01:23:59.913Z,-1.63
2022-12-18T01:26:30.616Z,-1.70
2022-12-18T01:28:59.441Z,-1.89
2022-12-18T01:31:33.073Z,-1.74
2022-12-18T01:34:06.151Z,-1.74
2022-12-18T01:36:37.865Z,-1.73
2022-12-18T01:39:14.043Z,-1.66
2022-12-18T01:42:00.945Z,-1.69
2022-12-18T01:45:03.433Z,-1.78
2022-12-18T01:47:37.821Z,-1.79
2022-12-18T01:50:24.632Z,-1.91
2022-12-18T01:53:01.292Z,-1.74
2022-12-18T01:55:36.106Z,-1.86
2022-12-18T01:58:04.628Z,-1.79
2022-12-18T02:00:32.760Z,-1.91
2022-12-18T02:03:00.117Z,-2.08
2022-12-18T02:06:05.754Z,-2.08
2022-12-18T02:08:52.016Z,-1.98
2022-12-18T02:11:58.295Z,-2.09
2022-12-18T02:15:04.562Z,-2.02
2022-12-18T02:17:38.852Z,-1.98
2022-12-18T02:20:19.124Z,-2.13
2022-12-18T02:22:55.066Z,-1.96
2022-12-18T02:25:48.914Z,-2.03
2022-12-18T02:28:21.866Z,-1.95
2022-12-18T02:30:53.507Z,-2.04
2022-12-18T02:33:25.221Z,-2.08
2022-12-18T02:35:55.460Z,-2.07
2022-12-18T02:38:26.114Z,-1.95
2022-12-18T02:40:55.114Z,-1.89
2022-12-18T02:43:22.621Z,-1.83
2022-12-18T02:45:55.899Z,-1.78
2022-12-18T02:48:33.446Z,-1.70
2022-12-18T02:51:30.175Z,-1.70
2022-12-18T02:54:23.950Z,-1.79
2022-12-18T02:56:56.938Z,-1.76
2022-12-18T02:59:42.173Z,-1.79
2022-12-18T03:02:24.677Z,-1.81
2022-12-18T03:05:18.771Z,-1.76
2022-12-18T03:07:58.309Z,-1.68
2022-12-18T03:10:32.151Z,-1.80
2022-12-18T03:13:16.698Z,-1.94
2022-12-18T03:15:50.629Z,-1.85
2022-12-18T03:18:28.651Z,-1.94
2022-12-18T03:21:03.929Z,-1.82
2022-12-18T03:23:40.731Z,-1.77
2022-12-18T03:26:18.561Z,-1.82
2022-12-18T03:28:56.853Z,-1.70
2022-12-18T03:31:27.493Z,-1.75
2022-12-18T03:34:00.480Z,-1.83
2022-12-18T03:36:28.910Z,-1.77
2022-12-18T03:38:56.204Z,-1.74
2022-12-18T03:41:50.549Z,-1.78
2022-12-18T03:44:51.089Z,-1.77
2022-12-18T03:47:36.262Z,-1.75
2022-12-18T03:50:48.235Z,-1.78
2022-12-18T03:53:59.073Z,-1.88
2022-12-18T03:56:34.182Z,-1.84
2022-12-18T03:59:05.670Z,-1.95
2022-12-18T04:01:40.242Z,-1.90
2022-12-18T04:04:10.992Z,-1.82
2022-12-18T04:06:40.924Z,-1.83
2022-12-18T04:09:09.233Z,-1.76
2022-12-18T04:11:36.529Z,-1.85
2022-12-18T04:14:07.190Z,-1.83
2022-12-18T04:16:34.709Z,-1.75
2022-12-18T04:19:02.339Z,-1.73
2022-12-18T04:21:29.581Z,-1.72
2022-12-18T04:23:57.094Z,-1.78
2022-12-18T04:26:24.447Z,-1.74
2022-12-18T04:28:51.959Z,-1.74
2022-12-18T04:31:19.254Z,-1.66
2022-12-18T04:33:46.773Z,-1.83
2022-12-18T04:36:14.144Z,-1.81
2022-12-18T04:38:41.889Z,-1.81
2022-12-18T04:41:09.298Z,-1.82
2022-12-18T04:43:36.997Z,-1.88
2022-12-18T04:46:09.485Z,-1.81
2022-12-18T04:48:38.311Z,-1.81
2022-12-18T04:51:07.090Z,-1.81
2022-12-18T04:53:34.883Z,-1.77
2022-12-18T04:56:11.768Z,-1.76
2022-12-18T04:58:41.459Z,-1.72
2022-12-18T05:01:10.358Z,-1.73
2022-12-18T05:03:39.766Z,-1.85
2022-12-18T05:06:08.582Z,-1.80
2022-12-18T05:08:36.528Z,-1.72
2022-12-18T05:11:11.288Z,-1.66
2022-12-18T05:13:39.910Z,-1.71
2022-12-18T05:16:08.679Z,-1.63
2022-12-18T05:18:36.870Z,-1.67
2022-12-18T05:21:04.630Z,-1.72
2022-12-18T05:23:32.662Z,-1.69
2022-12-18T05:26:03.359Z,-1.63
2022-12-18T05:28:33.078Z,-1.64
2022-12-18T05:31:03.485Z,-1.61
2022-12-18T05:33:35.543Z,-1.75
2022-12-18T05:36:06.707Z,-1.77
2022-12-18T05:38:37.665Z,-1.63
2022-12-18T05:41:06.593Z,-1.62
2022-12-18T05:43:37.542Z,-1.65
2022-12-18T05:46:14.028Z,-1.68
2022-12-18T05:48:42.896Z,-1.56
2022-12-18T05:51:15.547Z,-1.57
2022-12-18T05:53:44.395Z,-1.70
2022-12-18T05:56:21.402Z,-1.76
2022-12-18T05:58:54.203Z,-1.76
2022-12-18T06:01:26.464Z,-1.73
2022-12-18T06:03:54.964Z,-1.91
2022-12-18T06:06:28.713Z,-1.85
2022-12-18T06:08:57.686Z,-1.75
2022-12-18T06:11:28.181Z,-1.78
2022-12-18T06:13:59.327Z,-1.84
2022-12-18T06:16:28.840Z,-1.87
2022-12-18T06:19:02.738Z,-1.73
2022-12-18T06:21:31.679Z,-1.68
2022-12-18T06:24:00.983Z,-1.68
2022-12-18T06:26:28.755Z,-1.62
2022-12-18T06:28:56.560Z,-1.64
2022-12-18T06:31:23.898Z,-1.68
2022-12-18T06:33:51.581Z,-1.72
2022-12-18T06:36:18.908Z,-1.73
2022-12-18T06:38:46.456Z,-1.66
2022-12-18T06:41:20.921Z,-1.58
2022-12-18T06:43:48.714Z,-1.55
2022-12-18T06:46:16.533Z,-1.58
2022-12-18T06:48:47.372Z,-1.63
2022-12-18T06:51:21.939Z,-1.61
2022-12-18T06:53:49.941Z,-1.62
2022-12-18T06:56:17.623Z,-1.59
2022-12-18T06:58:45.373Z,-1.56
2022-12-18T07:01:14.865Z,-1.55
2022-12-18T07:03:44.586Z,-1.52
2022-12-18T07:06:21.184Z,-1.45
2022-12-18T07:08:50.669Z,-1.48
2022-12-18T07:11:19.147Z,-1.37
2022-12-18T07:13:47.877Z,-1.34
2022-12-18T07:16:25.159Z,-1.34
2022-12-18T07:18:55.829Z,-1.30
2022-12-18T07:21:25.311Z,-1.20
2022-12-18T07:23:53.335Z,-1.11
2022-12-18T07:26:22.953Z,-1.10
2022-12-18T07:28:51.334Z,-1.05
2022-12-18T07:31:22.812Z,-0.90
2022-12-18T07:33:51.889Z,-0.82
2022-12-18T07:36:20.446Z,-0.75
2022-12-18T07:38:53.541Z,-0.63
2022-12-18T07:41:22.292Z,-0.42
2022-12-18T07:43:49.831Z,-0.40
2022-12-18T07:46:18.769Z,-0.14
2022-12-18T07:48:49.349Z,-0.03
2022-12-18T07:51:19.583Z,0.05
2022-12-18T07:53:49.763Z,0.10
2022-12-18T07:56:30.373Z,0.29
2022-12-18T07:59:00.216Z,0.26
2022-12-18T08:01:28.666Z,0.70
2022-12-18T08:03:56.149Z,1.12
2022-12-18T08:06:24.824Z,1.47
2022-12-18T08:08:54.618Z,1.65
2022-12-18T08:11:24.341Z,1.83
2022-12-18T08:13:52.194Z,1.91
2022-12-18T08:16:21.626Z,1.97
2022-12-18T08:18:49.747Z,1.96
2022-12-18T08:21:26.373Z,2.00
2022-12-18T08:23:56.755Z,1.87
2022-12-18T08:26:26.894Z,1.99
2022-12-18T08:28:57.193Z,2.23
2022-12-18T08:31:26.132Z,2.52
2022-12-18T08:33:55.421Z,2.76
2022-12-18T08:36:24.355Z,3.11
2022-12-18T08:38:52.881Z,3.52
2022-12-18T08:41:20.821Z,4.60
2022-12-18T08:44:06.743Z,5.38
2022-12-18T08:46:43.382Z,6.17
2022-12-18T08:49:12.723Z,7.10
2022-12-18T08:51:40.796Z,7.78
2022-12-18T08:54:08.368Z,8.40
2022-12-18T08:56:36.259Z,8.77
2022-12-18T08:59:05.387Z,8.97
2022-12-18T09:01:33.284Z,9.08
2022-12-18T09:04:01.564Z,9.41
2022-12-18T09:06:29.069Z,10.30
2022-12-18T09:08:56.313Z,10.77
2022-12-18T09:11:27.416Z,10.45
2022-12-18T09:13:57.019Z,9.87
2022-12-18T09:16:31.644Z,9.67
2022-12-18T09:19:00.956Z,10.34
2022-12-18T09:21:37.021Z,11.69
2022-12-18T09:24:08.506Z,12.37
2022-12-18T09:26:36.996Z,13.37
2022-12-18T09:29:05.048Z,14.15
2022-12-18T09:31:32.642Z,15.79
2022-12-18T09:33:59.970Z,16.61
2022-12-18T09:36:27.653Z,17.60
2022-12-18T09:38:54.903Z,18.71
2022-12-18T09:41:45.432Z,19.26
2022-12-18T09:44:24.359Z,20.26
2022-12-18T09:47:07.581Z,20.02
2022-12-18T09:49:43.089Z,20.16
2022-12-18T09:52:28.923Z,20.77
2022-12-18T09:55:29.890Z,20.55
2022-12-18T09:58:25.712Z,18.75
2022-12-18T10:00:54.632Z,16.71
2022-12-18T10:03:22.955Z,14.09
2022-12-18T10:06:41.199Z,12.20
2022-12-18T10:09:50.169Z,11.50
2022-12-18T10:12:45.847Z,10.76
2022-12-18T10:15:31.525Z,10.32
2022-12-18T10:18:22.181Z,10.36
2022-12-18T10:21:00.049Z,9.82
2022-12-18T10:24:00.151Z,9.87
2022-12-18T10:26:27.717Z,9.88
2022-12-18T10:28:56.947Z,10.02
2022-12-18T10:31:26.277Z,9.81
2022-12-18T10:33:56.221Z,9.44
2022-12-18T10:36:25.811Z,9.07
2022-12-18T10:38:53.197Z,9.46
2022-12-18T10:41:23.130Z,10.10
2022-12-18T10:44:13.207Z,9.85
2022-12-18T10:46:41.765Z,9.66
2022-12-18T10:49:25.027Z,9.53
2022-12-18T10:52:08.412Z,10.22
2022-12-18T10:54:37.374Z,12.36
2022-12-18T10:57:41.577Z,15.26
2022-12-18T11:00:31.476Z,16.85
2022-12-18T11:02:59.372Z,16.32
2022-12-18T11:05:35.405Z,14.98
2022-12-18T11:08:04.174Z,14.56
2022-12-18T11:10:41.103Z,13.62
2022-12-18T11:13:23.123Z,13.04
2022-12-18T11:15:51.876Z,13.22
2022-12-18T11:18:28.570Z,12.89
2022-12-18T11:21:07.311Z,13.20
2022-12-18T11:23:37.591Z,12.11
2022-12-18T11:26:07.236Z,11.52
2022-12-18T11:29:10.423Z,11.08
2022-12-18T11:31:37.758Z,11.30
2022-12-18T11:34:32.445Z,11.23
2022-12-18T11:37:04.152Z,11.74
2022-12-18T11:39:50.859Z,13.87
2022-12-18T11:42:44.074Z,18.03
2022-12-18T11:45:14.727Z,21.27
2022-12-18T11:48:06.911Z,23.65
2022-12-18T11:50:59.665Z,24.40
2022-12-18T11:53:28.840Z,24.71
2022-12-18T11:56:31.012Z,25.79
2022-12-18T11:59:04.582Z,23.93
2022-12-18T12:01:56.299Z,21.68
2022-12-18T12:05:07.644Z,19.83
2022-12-18T12:08:11.079Z,19.79
2022-12-18T12:10:48.827Z,22.48
2022-12-18T12:13:57.293Z,24.39
2022-12-18T12:16:34.761Z,25.24
2022-12-18T12:19:28.388Z,25.81
2022-12-18T12:22:21.701Z,25.99
2022-12-18T12:25:47.194Z,27.14
2022-12-18T12:28:31.291Z,26.43
2022-12-18T12:31:38.321Z,25.42
2022-12-18T12:34:27.621Z,26.56
2022-12-18T12:37:38.053Z,27.44
2022-12-18T12:40:26.808Z,27.54
2022-12-18T12:43:24.389Z,28.15
2022-12-18T12:46:02.358Z,28.28
2022-12-18T12:48:45.567Z,28.22
2022-12-18T12:51:36.623Z,28.12
2022-12-18T12:54:14.161Z,27.74
2022-12-18T12:56:50.800Z,27.59
2022-12-18T12:59:41.403Z,27.59
2022-12-18T13:02:57.610Z,27.18
2022-12-18T13:05:35.691Z,27.28
2022-12-18T13:08:28.573Z,26.95
2022-12-18T13:11:19.766Z,26.75
2022-12-18T13:13:57.166Z,26.55
2022-12-18T13:16:30.645Z,26.02
2022-12-18T13:18:59.853Z,25.29
2022-12-18T13:21:32.080Z,25.04
2022-12-18T13:24:28.285Z,24.78
2022-12-18T13:26:55.878Z,24.17
2022-12-18T13:29:46.961Z,23.51
2022-12-18T13:32:25.403Z,23.04
2022-12-18T13:35:18.173Z,22.42
2022-12-18T13:37:54.413Z,22.01
2022-12-18T13:40:39.868Z,21.08
2022-12-18T13:43:35.628Z,20.39
2022-12-18T13:46:23.857Z,20.13
2022-12-18T13:48:59.432Z,19.68
2022-12-18T13:51:28.192Z,19.16
2022-12-18T13:54:00.706Z,18.96
2022-12-18T13:56:34.525Z,18.30
2022-12-18T13:59:15.906Z,17.72
2022-12-18T14:02:06.643Z,16.89
2022-12-18T14:04:37.007Z,14.99
2022-12-18T14:07:23.569Z,14.01
2022-12-18T14:10:18.887Z,13.50
2022-12-18T14:13:00.677Z,12.31
2022-12-18T14:15:45.459Z,10.72
2022-12-18T14:18:43.398Z,10.02
2022-12-18T14:21:31.173Z,9.01
2022-12-18T14:24:24.684Z,8.25
2022-12-18T14:26:52.791Z,7.56
2022-12-18T14:29:32.068Z,6.86
2022-12-18T14:32:17.691Z,5.98
2022-12-18T14:34:51.832Z,5.53
2022-12-18T14:37:26.636Z,4.82
2022-12-18T14:39:59.159Z,4.41
2022-12-18T14:42:29.407Z,3.80
2022-12-18T14:45:43.231Z,3.40
2022-12-18T14:48:48.581Z,2.94
2022-12-18T14:51:25.870Z,2.75
2022-12-18T14:54:01.491Z,2.52
2022-12-18T14:56:33.402Z,2.34
2022-12-18T14:59:25.680Z,2.13
2022-12-18T15:02:01.950Z,1.93
2022-12-18T15:04:44.492Z,1.78
2022-12-18T15:07:23.825Z,1.74
2022-12-18T15:10:19.048Z,1.63
2022-12-18T15:12:56.131Z,1.51
2022-12-18T15:15:38.716Z,1.40
2022-12-18T15:18:09.687Z,1.26
2022-12-18T15:21:01.205Z,1.00
2022-12-18T15:24:00.777Z,0.77
2022-12-18T15:26:39.426Z,0.68
2022-12-18T15:29:10.140Z,0.56
2022-12-18T15:31:40.377Z,0.32
2022-12-18T15:34:21.657Z,0.28
2022-12-18T15:36:52.161Z,0.17
2022-12-18T15:39:19.518Z,0.13
2022-12-18T15:42:06.638Z,0.01
2022-12-18T15:44:35.222Z,-0.12
2022-12-18T15:47:03.151Z,-0.16
2022-12-18T15:49:30.502Z,-0.28
2022-12-18T15:52:03.067Z,-0.43
2022-12-18T15:54:48.870Z,-0.44
2022-12-18T15:57:24.938Z,-0.48
2022-12-18T15:59:55.215Z,-0.62
2022-12-18T16:02:24.024Z,-0.72
2022-12-18T16:04:53.819Z,-0.79
2022-12-18T16:07:25.582Z,-0.90
2022-12-18T16:09:54.031Z,-0.96
2022-12-18T16:12:26.172Z,-0.98
2022-12-18T16:14:53.559Z,-1.08
2022-12-18T16:17:21.288Z,-1.25
2022-12-18T16:19:48.775Z,-1.34
2022-12-18T16:22:29.047Z,-1.46
2022-12-18T16:24:58.193Z,-1.49
2022-12-18T16:27:26.811Z,-1.53
2022-12-18T16:29:54.080Z,-1.54
2022-12-18T16:32:23.721Z,-1.64
2022-12-18T16:34:52.364Z,-1.75
2022-12-18T16:37:20.146Z,-1.75
2022-12-18T16:39:47.397Z,-1.84
2022-12-18T16:42:20.518Z,-1.93
2022-12-18T16:44:50.112Z,-2.02
2022-12-18T16:47:18.619Z,-2.00
2022-12-18T16:49:46.817Z,-2.02
2022-12-18T16:52:15.157Z,-2.10
2022-12-18T16:54:42.538Z,-2.19
2022-12-18T16:57:15.180Z,-2.17
2022-12-18T16:59:43.181Z,-2.22
2022-12-18T17:02:15.898Z,-2.31
2022-12-18T17:04:45.402Z,-2.35
2022-12-18T17:07:14.397Z,-2.49
2022-12-18T17:09:42.592Z,-2.55
2022-12-18T17:12:10.469Z,-2.62
2022-12-18T17:14:38.047Z,-2.63
2022-12-18T17:17:22.767Z,-2.82
2022-12-18T17:19:52.563Z,-2.91
2022-12-18T17:22:23.461Z,-3.06
2022-12-18T17:24:51.374Z,-3.08
2022-12-18T17:27:19.056Z,-3.11
2022-12-18T17:29:48.308Z,-3.19
2022-12-18T17:32:18.369Z,-3.38
2022-12-18T17:34:46.544Z,-3.39
2022-12-18T17:37:14.470Z,-3.47
2022-12-18T17:39:42.315Z,-3.43
2022-12-18T17:42:10.911Z,-3.49
2022-12-18T17:44:42.775Z,-3.45
2022-12-18T17:47:12.357Z,-3.47
2022-12-18T17:49:39.865Z,-3.53
2022-12-18T17:52:07.593Z,-3.43
2022-12-18T17:54:37.901Z,-3.53
2022-12-18T17:57:05.964Z,-3.39
2022-12-18T17:59:33.393Z,-3.51
2022-12-18T18:02:01.017Z,-3.68
2022-12-18T18:04:28.486Z,-3.74
2022-12-18T18:06:55.972Z,-3.86
2022-12-18T18:09:23.350Z,-3.95
2022-12-18T18:12:10.152Z,-3.85
2022-12-18T18:14:37.515Z,-3.85
2022-12-18T18:17:05.397Z,-3.88
2022-12-18T18:19:34.343Z,-4.11
2022-12-18T18:22:02.973Z,-4.16
2022-12-18T18:24:30.977Z,-4.02
2022-12-18T18:27:01.664Z,-3.96
2022-12-18T18:29:33.333Z,-4.09
2022-12-18T18:32:01.099Z,-4.02
2022-12-18T18:34:32.195Z,-4.39
2022-12-18T18:37:02.235Z,-4.30
2022-12-18T18:39:30.330Z,-4.31
2022-12-18T18:41:57.928Z,-4.21
2022-12-18T18:44:25.939Z,-4.30
2022-12-18T18:46:58.747Z,-4.45
2022-12-18T18:49:28.427Z,-4.42
2022-12-18T18:51:59.224Z,-4.50
2022-12-18T18:54:26.977Z,-4.59
2022-12-18T18:59:42.495Z,-4.64
2022-12-18T19:02:14.260Z,-4.63
2022-12-18T19:04:46.073Z,-4.66
2022-12-18T19:07:22.543Z,-4.74
2022-12-18T19:10:04.073Z,-4.78
2022-12-18T19:12:52.987Z,-4.78
2022-12-18T19:15:20.591Z,-4.84
2022-12-18T19:17:48.407Z,-4.90
2022-12-18T19:20:16.552Z,-4.94
2022-12-18T19:22:47.942Z,-4.95
2022-12-18T19:25:38.576Z,-4.89
2022-12-18T19:28:16.427Z,-4.86
2022-12-18T19:30:49.086Z,-4.96
2022-12-18T19:33:45.483Z,-5.10
2022-12-18T19:36:20.284Z,-5.03
2022-12-18T19:38:50.213Z,-5.06
2022-12-18T19:41:19.132Z,-5.14
2022-12-18T19:43:47.232Z,-5.13
2022-12-18T19:46:20.200Z,-5.18
2022-12-18T19:48:48.701Z,-5.15
2022-12-18T19:51:24.039Z,-5.26
2022-12-18T19:53:58.183Z,-5.22
2022-12-18T19:56:30.812Z,-5.14
2022-12-18T19:58:58.506Z,-5.24
2022-12-18T20:01:28.576Z,-5.29
2022-12-18T20:03:57.013Z,-5.44
2022-12-18T20:06:31.532Z,-5.37
2022-12-18T20:09:04.743Z,-5.50
2022-12-18T20:11:41.260Z,-5.55
2022-12-18T20:14:12.154Z,-5.47
2022-12-18T20:16:39.754Z,-5.53
2022-12-18T20:19:10.197Z,-5.46
2022-12-18T20:21:38.108Z,-5.47
2022-12-18T20:24:08.386Z,-5.42
2022-12-18T20:26:35.976Z,-5.54
2022-12-18T20:29:03.663Z,-5.57
2022-12-18T20:31:31.092Z,-5.54
2022-12-18T20:34:01.490Z,-5.60
2022-12-18T20:36:30.793Z,-5.58
2022-12-18T20:39:01.567Z,-5.62
2022-12-18T20:41:38.258Z,-5.67
2022-12-18T20:44:21.541Z,-5.67
2022-12-18T20:46:57.650Z,-5.56
2022-12-18T20:49:27.325Z,-5.46
2022-12-18T20:51:57.094Z,-5.46
2022-12-18T20:54:27.477Z,-5.48
2022-12-18T20:56:55.945Z,-5.54
2022-12-18T20:59:25.695Z,-5.60
2022-12-18T21:01:53.312Z,-5.55
2022-12-18T21:04:22.582Z,-5.50
2022-12-18T21:06:59.238Z,-5.50
2022-12-18T21:09:38.152Z,-5.50
2022-12-18T21:12:32.927Z,-5.42
2022-12-18T21:15:10.342Z,-5.55
2022-12-18T21:17:44.193Z,-5.58
2022-12-18T21:20:17.600Z,-5.65
2022-12-18T21:22:46.843Z,-5.81
2022-12-18T21:25:14.682Z,-5.75
2022-12-18T21:27:41.885Z,-5.72
2022-12-18T21:30:09.991Z,-5.75
2022-12-18T21:32:37.238Z,-5.71
2022-12-18T21:35:05.367Z,-5.76
2022-12-18T21:37:32.672Z,-5.60
2022-12-18T21:40:00.221Z,-5.58
2022-12-18T21:42:45.978Z,-5.53
2022-12-18T21:45:13.516Z,-5.54
2022-12-18T21:47:40.699Z,-5.50
2022-12-18T21:50:08.911Z,-5.45
2022-12-18T21:52:36.175Z,-5.53
2022-12-18T21:55:09.514Z,-5.46
2022-12-18T21:57:39.512Z,-5.43
2022-12-18T22:00:19.120Z,-5.48
2022-12-18T22:03:01.203Z,-5.46
2022-12-18T22:05:36.522Z,-5.61
2022-12-18T22:08:04.001Z,-5.68
2022-12-18T22:10:31.600Z,-5.69
2022-12-18T22:12:59.177Z,-5.75
2022-12-18T22:15:26.685Z,-5.75
2022-12-18T22:17:58.721Z,-5.67
2022-12-18T22:20:29.700Z,-5.70
2022-12-18T22:22:57.517Z,-5.74
2022-12-18T22:25:25.323Z,-5.73
2022-12-18T22:28:11.332Z,-5.75
2022-12-18T22:30:39.171Z,-5.75
2022-12-18T22:33:06.492Z,-5.76
2022-12-18T22:35:33.993Z,-5.71
2022-12-18T22:38:01.753Z,-5.75
2022-12-18T22:40:30.095Z,-5.73
2022-12-18T22:42:59.308Z,-5.66
2022-12-18T22:45:27.252Z,-5.71
2022-12-18T22:47:54.594Z,-5.73
2022-12-18T22:50:22.209Z,-5.75
2022-12-18T22:52:49.629Z,-5.88
2022-12-18T22:55:17.381Z,-5.91
2022-12-18T22:57:49.078Z,-5.95
2022-12-18T23:00:24.263Z,-5.97
2022-12-18T23:02:59.838Z,-5.99
2022-12-18T23:05:30.712Z,-5.93
2022-12-18T23:07:58.449Z,-5.90
2022-12-18T23:10:27.405Z,-5.94
2022-12-18T23:12:54.797Z,-5.91
2022-12-18T23:15:27.748Z,-5.88
2022-12-18T23:17:58.899Z,-5.94
2022-12-18T23:20:27.867Z,-5.98
2022-12-18T23:22:55.128Z,-5.97
2022-12-18T23:25:24.603Z,-6.03
2022-12-18T23:27:51.881Z,-5.94
2022-12-18T23:30:20.298Z,-5.87
2022-12-18T23:32:48.875Z,-5.84
2022-12-18T23:35:17.842Z,-5.72
2022-12-18T23:37:59.304Z,-5.68
2022-12-18T23:40:33.406Z,-5.83
2022-12-18T23:43:00.626Z,-5.76
2022-12-18T23:45:28.339Z,-5.74
2022-12-18T23:47:55.678Z,-5.68
2022-12-18T23:50:26.759Z,-5.64
2022-12-18T23:53:03.296Z,-5.74
2022-12-18T23:55:39.490Z,-5.79
2022-12-18T23:58:09.182Z,-5.75
